Time;durP1;ratioP1;P1;durP2;ratioP2;P2;SDS_P1;SDS_P2;PMS_P1;PMS_P2;Temp;Humidity;BMP_temperature;BMP_pressure;BME280_temperature;BME280_humidity;BME280_pressure;Samples;Min_cycle;Max_cycle;Signal;HPM_P1;HPM_P2
2022/04/21 00:02:10;;;;;;;6.57;4.60;;;;;;;;;;5102324;28;20203;-68
2022/04/21 00:04:37;;;;;;;4.75;4.35;;;;;;;;;;5102241;28;20218;-68
2022/04/21 00:07:05;;;;;;;4.93;4.43;;;;;;;;;;5101949;28;20241;-68
2022/04/21 00:09:31;;;;;;;6.13;4.53;;;;;;;;;;5102469;28;20271;-68
2022/04/21 00:11:57;;;;;;;5.00;4.57;;;;;;;;;;5102512;28;20249;-68
2022/04/21 00:14:23;;;;;;;7.82;4.78;;;;;;;;;;5102325;28;20234;-68
2022/04/21 00:16:50;;;;;;;4.72;4.43;;;;;;;;;;5102143;28;20244;-68
2022/04/21 00:19:16;;;;;;;4.88;4.50;;;;;;;;;;5102188;28;20196;-68
2022/04/21 00:24:27;;;;;;;5.00;4.50;;;;;;;;;;5102250;28;20391;-68
2022/04/21 00:26:54;;;;;;;4.70;4.43;;;;;;;;;;5102076;28;20199;-68
2022/04/21 00:29:20;;;;;;;4.93;4.53;;;;;;;;;;5102225;28;20241;-68
2022/04/21 00:31:46;;;;;;;5.50;5.00;;;;;;;;;;5102163;28;20234;-68
2022/04/21 00:34:13;;;;;;;5.93;4.65;;;;;;;;;;5101985;28;20200;-68
2022/04/21 00:36:39;;;;;;;5.95;5.35;;;;;;;;;;5102120;28;20196;-68
2022/04/21 00:39:07;;;;;;;5.18;4.78;;;;;;;;;;5102049;28;20211;-68
2022/04/21 00:41:33;;;;;;;4.85;4.55;;;;;;;;;;5101947;28;20277;-68
2022/04/21 00:43:59;;;;;;;5.50;5.00;;;;;;;;;;5102024;28;20422;-68
2022/04/21 00:46:26;;;;;;;8.88;5.13;;;;;;;;;;5101617;28;20271;-68
2022/04/21 00:48:52;;;;;;;9.60;5.00;;;;;;;;;;5101798;28;20200;-68
2022/04/21 00:51:18;;;;;;;5.30;4.93;;;;;;;;;;5101969;28;20211;-68
2022/04/21 00:53:45;;;;;;;5.35;4.95;;;;;;;;;;5101912;28;20234;-68
2022/04/21 00:56:13;;;;;;;6.30;5.72;;;;;;;;;;5101684;28;20234;-68
2022/04/21 00:58:41;;;;;;;6.72;5.03;;;;;;;;;;5101986;28;20222;-68
2022/04/21 01:02:46;;;;;;;5.32;4.88;;;;;;;;;;5101628;28;20291;-68
2022/04/21 01:03:55;;;;;;;6.15;5.63;;;;;;;;;;5101785;28;20552;-68
2022/04/21 01:06:22;;;;;;;6.18;5.32;;;;;;;;;;5102838;28;20211;-68
2022/04/21 01:08:48;;;;;;;6.88;5.78;;;;;;;;;;5105489;28;20249;-68
2022/04/21 01:11:16;;;;;;;6.90;6.20;;;;;;;;;;5105388;28;20191;-68
2022/04/21 01:13:42;;;;;;;8.63;6.38;;;;;;;;;;5105345;28;20232;-68
2022/04/21 01:16:08;;;;;;;6.82;6.13;;;;;;;;;;5105191;28;20552;-68
2022/04/21 01:18:35;;;;;;;7.25;6.15;;;;;;;;;;5105472;28;20560;-68
2022/04/21 01:21:02;;;;;;;8.43;6.28;;;;;;;;;;5105275;28;20384;-68
2022/04/21 01:23:29;;;;;;;7.28;5.68;;;;;;;;;;5105252;28;20503;-68
2022/04/21 01:25:55;;;;;;;6.80;6.07;;;;;;;;;;5105214;28;20202;-68
2022/04/21 01:28:22;;;;;;;5.60;5.10;;;;;;;;;;5104324;28;20221;-68
2022/04/21 01:30:48;;;;;;;5.45;5.05;;;;;;;;;;5105203;28;20192;-68
2022/04/21 01:33:14;;;;;;;5.70;5.20;;;;;;;;;;5105051;28;20204;-68
2022/04/21 01:35:41;;;;;;;5.15;4.85;;;;;;;;;;5104897;28;20233;-68
2022/04/21 01:41:11;;;;;;;6.57;5.32;;;;;;;;;;5104758;28;20567;-68
2022/04/21 01:43:38;;;;;;;6.07;5.57;;;;;;;;;;5104786;28;20207;-68
2022/04/21 01:46:05;;;;;;;5.47;5.13;;;;;;;;;;5104489;28;20503;-68
2022/04/21 01:48:31;;;;;;;5.30;4.93;;;;;;;;;;5104496;28;20209;-68
2022/04/21 01:50:57;;;;;;;6.20;5.57;;;;;;;;;;5104929;28;20237;-68
2022/04/21 01:53:25;;;;;;;6.80;5.18;;;;;;;;;;5104797;28;20196;-68
2022/04/21 01:55:51;;;;;;;5.80;5.25;;;;;;;;;;5104938;28;20203;-68
2022/04/21 01:58:17;;;;;;;6.55;6.05;;;;;;;;;;5104386;28;20235;-68
2022/04/21 02:00:44;;;;;;;7.35;5.60;;;;;;;;;;5104179;28;20226;-68
2022/04/21 02:03:10;;;;;;;10.13;5.53;;;;;;;;;;5104665;28;20425;-68
2022/04/21 02:05:36;;;;;;;8.57;6.35;;;;;;;;;;5104472;28;20215;-68
2022/04/21 02:08:03;;;;;;;6.43;5.85;;;;;;;;;;5104226;28;20233;-68
2022/04/21 02:10:31;;;;;;;6.40;5.80;;;;;;;;;;5104334;28;20200;-68
2022/04/21 02:12:58;;;;;;;6.13;5.70;;;;;;;;;;5104204;28;20195;-68
2022/04/21 02:15:24;;;;;;;8.73;6.43;;;;;;;;;;5104028;28;20195;-68
2022/04/21 02:17:51;;;;;;;7.63;6.30;;;;;;;;;;5103022;28;20196;-69
2022/04/21 02:20:17;;;;;;;7.30;5.97;;;;;;;;;;5104089;28;20241;-68
2022/04/21 02:22:44;;;;;;;6.72;6.22;;;;;;;;;;5103996;28;20223;-68
2022/04/21 02:25:10;;;;;;;6.82;6.28;;;;;;;;;;5104041;28;20503;-68
2022/04/21 02:27:39;;;;;;;6.53;5.93;;;;;;;;;;5103678;28;20249;-68
2022/04/21 02:30:06;;;;;;;9.05;6.57;;;;;;;;;;5103785;28;20242;-69
2022/04/21 02:32:33;;;;;;;6.72;5.85;;;;;;;;;;5103853;28;20223;-68
2022/04/21 02:34:59;;;;;;;7.35;6.22;;;;;;;;;;5103980;28;20200;-69
2022/04/21 02:37:25;;;;;;;7.97;6.93;;;;;;;;;;5103560;28;20257;-69
2022/04/21 02:39:52;;;;;;;7.40;6.63;;;;;;;;;;5103735;28;20218;-69
2022/04/21 02:42:19;;;;;;;8.65;6.43;;;;;;;;;;5103824;28;20211;-69
2022/04/21 02:44:47;;;;;;;6.97;6.38;;;;;;;;;;5103502;28;20196;-69
2022/04/21 02:47:14;;;;;;;6.88;6.38;;;;;;;;;;5103484;28;20202;-69
2022/04/21 02:49:45;;;;;;;8.82;6.53;;;;;;;;;;5103596;28;20266;-68
2022/04/21 02:52:12;;;;;;;7.05;6.32;;;;;;;;;;5103624;28;20192;-68
2022/04/21 02:57:22;;;;;;;7.03;6.32;;;;;;;;;;5103099;28;20237;-68
2022/04/21 02:59:50;;;;;;;7.03;6.53;;;;;;;;;;5103228;28;20196;-69
2022/04/21 03:02:16;;;;;;;7.45;6.85;;;;;;;;;;5103332;28;20219;-69
2022/04/21 03:04:43;;;;;;;7.95;7.25;;;;;;;;;;5103207;28;20241;-69
2022/04/21 03:07:09;;;;;;;7.53;6.93;;;;;;;;;;5102977;28;20199;-69
2022/04/21 03:09:35;;;;;;;7.47;6.75;;;;;;;;;;5102985;28;20196;-69
2022/04/21 03:12:03;;;;;;;7.53;6.82;;;;;;;;;;5103246;28;20191;-69
2022/04/21 03:14:29;;;;;;;7.93;7.35;;;;;;;;;;5103211;28;20577;-69
2022/04/21 03:16:56;;;;;;;8.35;7.55;;;;;;;;;;5102845;28;20364;-68
2022/04/21 03:19:23;;;;;;;8.45;7.63;;;;;;;;;;5103045;28;20511;-69
2022/04/21 03:24:33;;;;;;;9.45;7.75;;;;;;;;;;5102905;28;20240;-69
2022/04/21 03:26:59;;;;;;;8.40;7.45;;;;;;;;;;5102757;28;20200;-68
2022/04/21 03:29:26;;;;;;;8.40;7.78;;;;;;;;;;5102525;28;20199;-69
2022/04/21 03:31:52;;;;;;;10.13;9.15;;;;;;;;;;5102769;28;20253;-69
2022/04/21 03:34:20;;;;;;;9.23;8.32;;;;;;;;;;5102794;28;20199;-69
2022/04/21 03:36:48;;;;;;;10.98;7.97;;;;;;;;;;5102462;28;20203;-69
2022/04/21 03:39:14;;;;;;;9.40;7.95;;;;;;;;;;5102827;28;20199;-69
2022/04/21 03:41:40;;;;;;;9.30;8.30;;;;;;;;;;5102469;28;20269;-68
2022/04/21 03:44:06;;;;;;;9.80;7.88;;;;;;;;;;5102574;28;20199;-68
2022/04/21 03:46:33;;;;;;;8.90;8.00;;;;;;;;;;5102568;28;20548;-69
2022/04/21 03:48:59;;;;;;;9.00;8.20;;;;;;;;;;5102602;28;20196;-69
2022/04/21 03:51:27;;;;;;;10.02;8.85;;;;;;;;;;5102838;28;20192;-69
2022/04/21 03:53:54;;;;;;;8.48;7.53;;;;;;;;;;5102734;28;20203;-68
2022/04/21 03:56:20;;;;;;;8.65;7.95;;;;;;;;;;5102310;28;20203;-69
2022/04/21 03:58:46;;;;;;;9.25;7.53;;;;;;;;;;5102523;28;20495;-69
2022/04/21 04:01:12;;;;;;;8.10;7.60;;;;;;;;;;5102334;28;20214;-69
2022/04/21 04:03:38;;;;;;;8.88;8.05;;;;;;;;;;5102408;28;20196;-69
2022/04/21 04:10:51;;;;;;;8.85;8.15;;;;;;;;;;5102056;28;20261;-69
2022/04/21 04:11:36;;;;;;;10.85;9.15;;;;;;;;;;5102371;28;20382;-68
2022/04/21 04:14:04;;;;;;;10.52;9.43;;;;;;;;;;5102429;28;20523;-69
2022/04/21 04:16:31;;;;;;;12.18;10.65;;;;;;;;;;5102261;28;20469;-68
2022/04/21 04:18:57;;;;;;;11.63;10.52;;;;;;;;;;5102518;28;20196;-69
2022/04/21 04:21:23;;;;;;;12.40;11.18;;;;;;;;;;5102329;28;20265;-68
2022/04/21 04:23:49;;;;;;;12.18;10.30;;;;;;;;;;5102090;28;20241;-69
2022/04/21 04:26:17;;;;;;;10.85;9.85;;;;;;;;;;5102053;28;20245;-69
2022/04/21 04:28:43;;;;;;;11.40;10.25;;;;;;;;;;5102089;28;20200;-69
2022/04/21 04:31:09;;;;;;;12.32;10.55;;;;;;;;;;5102622;28;20377;-69
2022/04/21 04:33:35;;;;;;;12.05;10.25;;;;;;;;;;5102229;28;20241;-69
2022/04/21 04:36:02;;;;;;;10.50;9.18;;;;;;;;;;5101923;28;20195;-69
2022/04/21 04:38:28;;;;;;;11.27;10.25;;;;;;;;;;5102073;28;20199;-69
2022/04/21 04:40:54;;;;;;;15.75;9.50;;;;;;;;;;5102741;28;20203;-69
2022/04/21 04:43:22;;;;;;;10.70;9.60;;;;;;;;;;5105757;28;20449;-69
2022/04/21 04:48:32;;;;;;;11.73;9.52;;;;;;;;;;5105855;28;20183;-69
2022/04/21 04:51:00;;;;;;;11.35;10.10;;;;;;;;;;5105821;28;20214;-69
2022/04/21 04:53:26;;;;;;;10.80;9.73;;;;;;;;;;5105810;28;20192;-69
2022/04/21 04:55:52;;;;;;;18.27;10.40;;;;;;;;;;5106115;28;20416;-68
2022/04/21 04:58:18;;;;;;;12.35;10.63;;;;;;;;;;5105537;28;20249;-68
2022/04/21 05:00:48;;;;;;;10.85;9.75;;;;;;;;;;5105719;28;20324;-69
2022/04/21 05:03:17;;;;;;;11.85;10.38;;;;;;;;;;5105420;28;20220;-68
2022/04/21 05:05:44;;;;;;;11.63;10.25;;;;;;;;;;5105390;28;20224;-68
2022/04/21 05:08:10;;;;;;;11.75;8.98;;;;;;;;;;5104861;28;20565;-68
2022/04/21 05:10:36;;;;;;;15.88;9.68;;;;;;;;;;5104853;28;20290;-69
2022/04/21 05:13:03;;;;;;;12.85;9.45;;;;;;;;;;5103642;28;20392;-68
2022/04/21 05:15:29;;;;;;;11.45;9.07;;;;;;;;;;5105060;28;20433;-68
2022/04/21 05:17:57;;;;;;;10.73;9.70;;;;;;;;;;5104596;28;20203;-69
2022/04/21 05:20:24;;;;;;;11.27;10.15;;;;;;;;;;5104819;28;20506;-68
2022/04/21 05:22:50;;;;;;;15.13;9.02;;;;;;;;;;5104931;28;20228;-69
2022/04/21 05:25:17;;;;;;;10.80;9.80;;;;;;;;;;5104877;28;20275;-69
2022/04/21 05:27:43;;;;;;;9.95;8.57;;;;;;;;;;5104454;28;20503;-69
2022/04/21 05:32:58;;;;;;;9.50;8.68;;;;;;;;;;5104454;28;20250;-69
2022/04/21 05:35:26;;;;;;;10.38;9.27;;;;;;;;;;5104419;28;20529;-69
2022/04/21 05:37:53;;;;;;;9.65;8.68;;;;;;;;;;5104367;28;20195;-68
2022/04/21 05:40:19;;;;;;;10.30;9.30;;;;;;;;;;5104560;28;20203;-69
2022/04/21 05:42:46;;;;;;;11.32;10.07;;;;;;;;;;5104097;28;20223;-68
2022/04/21 05:45:13;;;;;;;10.73;9.73;;;;;;;;;;5104340;28;20195;-69
2022/04/21 05:47:41;;;;;;;10.73;9.63;;;;;;;;;;5103931;28;20200;-69
2022/04/21 05:50:08;;;;;;;11.43;9.98;;;;;;;;;;5093781;28;20230;-69
2022/04/21 05:52:39;;;;;;;11.30;10.20;;;;;;;;;;5083423;28;20500;-69
2022/04/21 05:55:05;;;;;;;13.93;9.90;;;;;;;;;;5097932;28;20374;-60
2022/04/21 05:57:32;;;;;;;11.15;10.13;;;;;;;;;;5097973;28;20212;-60
2022/04/21 05:59:58;;;;;;;11.77;10.45;;;;;;;;;;5098130;28;20484;-60
2022/04/21 06:02:24;;;;;;;12.13;10.15;;;;;;;;;;5097654;28;20269;-59
2022/04/21 06:04:50;;;;;;;12.90;10.85;;;;;;;;;;5097820;28;20501;-59
2022/04/21 06:07:17;;;;;;;16.10;11.20;;;;;;;;;;5096786;28;20218;-58
2022/04/21 06:09:44;;;;;;;12.32;11.00;;;;;;;;;;5096950;28;20337;-58
2022/04/21 06:12:11;;;;;;;12.27;10.93;;;;;;;;;;5097638;28;20211;-59
2022/04/21 06:14:38;;;;;;;11.82;10.70;;;;;;;;;;5098355;28;20437;-59
2022/04/21 06:17:05;;;;;;;18.05;10.88;;;;;;;;;;5097841;28;20396;-59
2022/04/21 06:19:31;;;;;;;12.45;11.30;;;;;;;;;;5098423;28;20438;-59
2022/04/21 06:21:58;;;;;;;13.18;10.18;;;;;;;;;;5097817;28;20750;-58
2022/04/21 06:24:24;;;;;;;12.07;10.88;;;;;;;;;;5098113;28;20211;-57
2022/04/21 06:26:52;;;;;;;11.23;9.50;;;;;;;;;;5097437;28;20268;-58
2022/04/21 06:29:18;;;;;;;11.77;9.90;;;;;;;;;;5097948;28;20212;-59
2022/04/21 06:31:45;;;;;;;13.15;11.50;;;;;;;;;;5097755;28;20243;-58
2022/04/21 06:34:11;;;;;;;12.73;11.52;;;;;;;;;;5098202;28;20211;-58
2022/04/21 06:36:38;;;;;;;13.57;12.27;;;;;;;;;;5097938;28;20502;-58
2022/04/21 06:39:04;;;;;;;17.40;12.25;;;;;;;;;;5097657;28;20366;-57
2022/04/21 06:41:30;;;;;;;13.65;11.60;;;;;;;;;;5097498;28;20207;-58
2022/04/21 06:49:25;;;;;;;12.25;11.02;;;;;;;;;;5097590;28;20209;-57
2022/04/21 06:51:51;;;;;;;13.18;11.70;;;;;;;;;;5097316;28;20589;-59
2022/04/21 06:54:18;;;;;;;13.95;11.48;;;;;;;;;;5097957;28;20261;-59
2022/04/21 06:56:48;;;;;;;18.42;11.75;;;;;;;;;;5098033;28;20269;-62
2022/04/21 06:59:16;;;;;;;13.30;11.93;;;;;;;;;;5097083;28;20219;-58
2022/04/21 07:01:42;;;;;;;14.27;12.35;;;;;;;;;;5096371;28;20246;-59
2022/04/21 07:04:08;;;;;;;13.23;11.55;;;;;;;;;;5096386;28;20223;-58
2022/04/21 07:06:35;;;;;;;12.57;11.32;;;;;;;;;;5097666;28;20522;-60
2022/04/21 07:09:01;;;;;;;13.48;11.82;;;;;;;;;;5097437;28;20215;-60
2022/04/21 07:11:27;;;;;;;13.52;12.13;;;;;;;;;;5096222;28;20211;-59
2022/04/21 07:13:54;;;;;;;17.33;12.05;;;;;;;;;;5097141;28;20736;-58
2022/04/21 07:16:21;;;;;;;14.68;11.65;;;;;;;;;;5096950;28;20212;-60
2022/04/21 07:18:47;;;;;;;17.00;11.93;;;;;;;;;;5097423;28;20215;-59
2022/04/21 07:21:17;;;;;;;13.40;11.98;;;;;;;;;;5096316;28;20212;-59
2022/04/21 07:23:44;;;;;;;14.50;12.07;;;;;;;;;;5096831;28;20231;-60
2022/04/21 07:26:10;;;;;;;15.82;12.10;;;;;;;;;;5096859;28;20439;-59
2022/04/21 07:28:36;;;;;;;16.60;12.05;;;;;;;;;;5096952;28;20529;-59
2022/04/21 07:31:02;;;;;;;16.17;11.77;;;;;;;;;;5096310;28;20441;-59
2022/04/21 07:33:30;;;;;;;14.38;11.88;;;;;;;;;;5097408;28;20446;-59
2022/04/21 07:35:56;;;;;;;13.40;12.00;;;;;;;;;;5097400;28;20249;-59
2022/04/21 07:38:23;;;;;;;15.50;12.27;;;;;;;;;;5097259;28;20211;-60
2022/04/21 07:40:52;;;;;;;16.50;12.15;;;;;;;;;;5097138;28;20253;-58
2022/04/21 07:43:19;;;;;;;12.23;11.10;;;;;;;;;;5096755;28;20231;-58
2022/04/21 07:45:45;;;;;;;13.65;12.25;;;;;;;;;;5097306;28;20207;-59
2022/04/21 07:48:11;;;;;;;12.38;11.18;;;;;;;;;;5096713;28;20537;-56
2022/04/21 07:50:39;;;;;;;13.65;11.50;;;;;;;;;;5097137;28;20447;-59
2022/04/21 07:53:19;;;;;;;18.55;11.85;;;;;;;;;;5096124;28;20207;-58
2022/04/21 07:55:50;;;;;;;14.32;11.73;;;;;;;;;;5076600;28;20529;-60
2022/04/21 07:58:16;;;;;;;14.23;11.23;;;;;;;;;;5076364;28;20208;-59
2022/04/21 08:00:44;;;;;;;13.68;11.85;;;;;;;;;;5076209;28;20212;-60
2022/04/21 08:03:10;;;;;;;14.05;11.85;;;;;;;;;;5076192;28;20299;-59
2022/04/21 08:05:40;;;;;;;13.52;10.95;;;;;;;;;;5076148;28;20228;-60
2022/04/21 08:08:10;;;;;;;13.00;11.70;;;;;;;;;;5088362;28;20215;-60
2022/04/21 08:10:37;;;;;;;11.60;10.50;;;;;;;;;;5096486;28;20420;-61
2022/04/21 08:13:03;;;;;;;10.88;9.90;;;;;;;;;;5096409;28;20518;-60
2022/04/21 08:15:30;;;;;;;10.15;9.35;;;;;;;;;;5098012;28;20212;-58
2022/04/21 08:17:57;;;;;;;8.82;7.95;;;;;;;;;;5100415;28;20215;-58
2022/04/21 08:20:24;;;;;;;11.98;8.68;;;;;;;;;;5100738;28;20207;-58
2022/04/21 08:22:52;;;;;;;9.07;8.05;;;;;;;;;;5100928;28;20405;-57
2022/04/21 08:33:30;;;;;;;9.55;7.03;;;;;;;;;;5100330;28;20240;-60
2022/04/21 08:35:58;;;;;;;7.65;6.95;;;;;;;;;;5100360;28;20212;-59
2022/04/21 08:38:27;;;;;;;7.20;6.47;;;;;;;;;;5099886;28;20515;-60
2022/04/21 08:40:54;;;;;;;8.07;7.38;;;;;;;;;;5099910;28;20207;-59
2022/04/21 08:43:21;;;;;;;10.60;7.00;;;;;;;;;;5100055;28;20391;-58
2022/04/21 08:45:48;;;;;;;7.30;6.65;;;;;;;;;;5100382;28;20218;-59
2022/04/21 08:48:15;;;;;;;7.90;6.32;;;;;;;;;;5100494;28;20253;-59
2022/04/21 08:50:41;;;;;;;7.50;6.85;;;;;;;;;;5099222;28;20199;-57
2022/04/21 08:53:08;;;;;;;7.20;6.70;;;;;;;;;;5099733;28;20200;-60
2022/04/21 08:55:36;;;;;;;7.53;6.65;;;;;;;;;;5099638;28;20609;-60
2022/04/21 08:58:03;;;;;;;7.90;6.68;;;;;;;;;;5099754;28;20517;-59
2022/04/21 09:00:31;;;;;;;7.00;6.50;;;;;;;;;;5099475;28;20249;-60
2022/04/21 09:02:57;;;;;;;7.72;6.70;;;;;;;;;;5099371;28;20227;-60
2022/04/21 09:05:27;;;;;;;7.45;6.75;;;;;;;;;;5099744;28;20224;-59
2022/04/21 09:07:53;;;;;;;8.38;7.57;;;;;;;;;;5099296;28;20215;-60
2022/04/21 09:10:21;;;;;;;9.00;7.00;;;;;;;;;;5099812;28;20468;-60
2022/04/21 09:12:50;;;;;;;7.63;6.80;;;;;;;;;;5099377;28;20538;-60
2022/04/21 09:15:17;;;;;;;6.93;6.32;;;;;;;;;;5099771;28;20269;-60
2022/04/21 09:17:45;;;;;;;8.23;6.30;;;;;;;;;;5099572;28;20208;-60
2022/04/21 09:20:12;;;;;;;8.15;7.43;;;;;;;;;;5099394;28;20208;-61
2022/04/21 09:22:40;;;;;;;8.43;6.57;;;;;;;;;;5099105;28;20211;-60
2022/04/21 09:25:07;;;;;;;7.00;6.30;;;;;;;;;;5099527;28;20214;-61
2022/04/21 09:27:38;;;;;;;10.02;6.35;;;;;;;;;;5099005;28;20203;-60
2022/04/21 09:30:10;;;;;;;7.10;6.40;;;;;;;;;;5099128;28;20215;-61
2022/04/21 09:32:36;;;;;;;6.20;5.60;;;;;;;;;;5099205;28;20275;-60
2022/04/21 09:35:04;;;;;;;7.85;7.07;;;;;;;;;;5099164;28;20203;-61
2022/04/21 09:37:30;;;;;;;6.80;6.10;;;;;;;;;;5098663;28;20241;-61
2022/04/21 09:39:56;;;;;;;7.43;6.70;;;;;;;;;;5098850;28;20208;-61
2022/04/21 09:42:23;;;;;;;5.45;5.05;;;;;;;;;;5098592;28;20263;-61
2022/04/21 09:47:34;;;;;;;7.57;6.43;;;;;;;;;;5099329;28;20210;-55
2022/04/21 09:50:11;;;;;;;5.22;4.80;;;;;;;;;;5099226;28;20199;-57
2022/04/21 09:52:37;;;;;;;5.22;4.93;;;;;;;;;;5098909;28;20249;-56
2022/04/21 09:55:19;;;;;;;5.30;4.95;;;;;;;;;;5098975;28;20215;-56
2022/04/21 09:57:46;;;;;;;7.22;6.53;;;;;;;;;;5098506;28;20207;-56
2022/04/21 10:00:14;;;;;;;4.10;3.90;;;;;;;;;;5098588;28;20215;-56
2022/04/21 10:02:45;;;;;;;4.75;4.45;;;;;;;;;;5098203;28;20549;-56
2022/04/21 10:05:12;;;;;;;4.43;4.07;;;;;;;;;;5097762;28;20219;-56
2022/04/21 10:07:38;;;;;;;8.02;4.35;;;;;;;;;;5098222;28;20468;-56
2022/04/21 10:10:05;;;;;;;6.28;5.13;;;;;;;;;;5098431;28;20245;-56
2022/04/21 10:12:32;;;;;;;6.47;5.95;;;;;;;;;;5097981;28;20515;-56
2022/04/21 10:14:58;;;;;;;4.63;4.32;;;;;;;;;;5098791;28;20200;-57
2022/04/21 10:17:24;;;;;;;4.75;4.45;;;;;;;;;;5098562;28;20449;-57
2022/04/21 10:19:52;;;;;;;4.07;3.85;;;;;;;;;;5098083;28;20223;-56
2022/04/21 10:22:20;;;;;;;5.35;3.83;;;;;;;;;;5098042;28;20214;-56
2022/04/21 10:24:46;;;;;;;6.07;4.10;;;;;;;;;;5097935;28;20224;-56
2022/04/21 10:27:32;;;;;;;4.32;3.92;;;;;;;;;;5097924;28;20257;-56
2022/04/21 10:29:58;;;;;;;3.63;3.42;;;;;;;;;;5098109;28;20208;-56
2022/04/21 10:32:44;;;;;;;5.38;3.20;;;;;;;;;;5098004;28;20211;-56
2022/04/21 10:35:19;;;;;;;3.38;3.10;;;;;;;;;;5098379;28;20328;-56
2022/04/21 10:37:46;;;;;;;3.30;2.97;;;;;;;;;;5097776;28;20211;-56
2022/04/21 10:40:14;;;;;;;3.83;3.35;;;;;;;;;;5097065;28;20207;-55
2022/04/21 10:42:57;;;;;;;3.88;3.55;;;;;;;;;;5097781;28;20207;-55
2022/04/21 10:45:24;;;;;;;3.25;3.05;;;;;;;;;;5098224;28;20243;-55
2022/04/21 10:48:02;;;;;;;3.53;3.22;;;;;;;;;;5097793;28;20212;-56
2022/04/21 10:50:31;;;;;;;3.17;2.90;;;;;;;;;;5097900;28;20207;-55
2022/04/21 10:58:52;;;;;;;2.50;2.40;;;;;;;;;;5097348;28;20272;-58
2022/04/21 11:01:34;;;;;;;1.75;1.75;;;;;;;;;;5097169;28;20220;-55
2022/04/21 11:04:13;;;;;;;2.67;2.10;;;;;;;;;;5097126;28;20228;-55
2022/04/21 11:06:42;;;;;;;1.92;1.80;;;;;;;;;;5096639;28;20222;-58
2022/04/21 11:09:09;;;;;;;1.58;1.58;;;;;;;;;;5097402;28;20235;-55
2022/04/21 11:11:45;;;;;;;1.55;1.55;;;;;;;;;;5096688;28;20490;-56
2022/04/21 11:14:11;;;;;;;1.80;1.80;;;;;;;;;;5097503;28;20210;-55
2022/04/21 11:16:48;;;;;;;2.10;2.00;;;;;;;;;;5091101;28;20445;-56
2022/04/21 11:19:34;;;;;;;1.88;1.77;;;;;;;;;;5087341;28;20204;-56
2022/04/21 11:22:02;;;;;;;2.75;1.92;;;;;;;;;;5087220;28;20204;-54
2022/04/21 11:24:48;;;;;;;2.25;1.90;;;;;;;;;;5082245;28;20231;-55
2022/04/21 11:27:15;;;;;;;1.65;1.55;;;;;;;;;;5086761;28;20357;-57
2022/04/21 11:29:42;;;;;;;1.40;1.40;;;;;;;;;;5097374;28;20208;-56
2022/04/21 11:32:09;;;;;;;1.77;1.77;;;;;;;;;;5097121;28;20203;-56
2022/04/21 11:34:35;;;;;;;1.50;1.40;;;;;;;;;;5097290;28;20381;-57
2022/04/21 11:37:05;;;;;;;1.40;1.40;;;;;;;;;;5097006;28;20523;-57
2022/04/21 11:39:31;;;;;;;1.20;1.20;;;;;;;;;;5097099;28;20538;-56
2022/04/21 11:41:57;;;;;;;1.30;1.20;;;;;;;;;;5096737;28;20543;-56
2022/04/21 11:44:25;;;;;;;1.67;1.67;;;;;;;;;;5096798;28;20223;-55
2022/04/21 11:46:52;;;;;;;2.80;1.30;;;;;;;;;;5096731;28;20511;-56
2022/04/21 11:49:18;;;;;;;4.45;4.05;;;;;;;;;;5096805;28;20207;-55
2022/04/21 11:51:44;;;;;;;1.63;1.63;;;;;;;;;;5096350;28;20302;-55
2022/04/21 11:54:12;;;;;;;1.23;1.20;;;;;;;;;;5096354;28;20211;-55
2022/04/21 11:56:39;;;;;;;1.05;1.05;;;;;;;;;;5096460;28;20207;-56
2022/04/21 11:59:07;;;;;;;1.90;1.80;;;;;;;;;;5097257;28;20557;-58
2022/04/21 12:07:03;;;;;;;1.10;1.10;;;;;;;;;;5096717;28;20207;-59
2022/04/21 12:09:33;;;;;;;1.73;1.73;;;;;;;;;;5096740;28;20449;-58
2022/04/21 12:12:00;;;;;;;2.15;1.50;;;;;;;;;;5096479;28;20325;-57
2022/04/21 12:14:27;;;;;;;1.92;1.92;;;;;;;;;;5096791;28;20210;-57
2022/04/21 12:16:53;;;;;;;2.38;1.10;;;;;;;;;;5096515;28;20254;-57
2022/04/21 12:19:26;;;;;;;2.05;1.08;;;;;;;;;;5096427;28;20227;-58
2022/04/21 12:21:57;;;;;;;4.10;3.80;;;;;;;;;;5096160;28;20200;-58
2022/04/21 12:24:27;;;;;;;4.80;4.30;;;;;;;;;;5096319;28;20249;-58
2022/04/21 12:26:55;;;;;;;2.75;1.50;;;;;;;;;;5087258;28;20246;-58
2022/04/21 12:29:22;;;;;;;2.08;1.90;;;;;;;;;;5085469;28;20249;-57
2022/04/21 12:31:50;;;;;;;1.38;1.35;;;;;;;;;;5086314;28;20196;-57
2022/04/21 12:34:20;;;;;;;1.85;1.45;;;;;;;;;;5086622;28;20565;-55
2022/04/21 12:36:51;;;;;;;4.38;1.65;;;;;;;;;;5075721;28;20212;-57
2022/04/21 12:39:17;;;;;;;1.85;1.85;;;;;;;;;;5075766;28;20208;-55
2022/04/21 12:41:44;;;;;;;2.45;1.70;;;;;;;;;;5075641;28;20208;-57
2022/04/21 12:44:12;;;;;;;1.50;1.50;;;;;;;;;;5075772;28;20559;-58
2022/04/21 12:46:39;;;;;;;1.10;1.10;;;;;;;;;;5094002;28;20531;-57
2022/04/21 12:49:05;;;;;;;2.00;1.90;;;;;;;;;;5096116;28;20207;-57
2022/04/21 12:51:32;;;;;;;1.85;1.77;;;;;;;;;;5096033;28;20211;-58
2022/04/21 12:53:58;;;;;;;3.60;2.10;;;;;;;;;;5096022;28;20242;-56
2022/04/21 12:56:34;;;;;;;2.00;1.90;;;;;;;;;;5095829;28;20275;-57
2022/04/21 12:59:01;;;;;;;2.53;1.17;;;;;;;;;;5096094;28;20211;-55
2022/04/21 13:01:29;;;;;;;1.65;1.60;;;;;;;;;;5095480;28;20280;-58
2022/04/21 13:03:58;;;;;;;2.25;1.75;;;;;;;;;;5099794;28;20226;-57
2022/04/21 13:06:28;;;;;;;1.27;1.17;;;;;;;;;;5099445;28;20223;-57
2022/04/21 13:08:54;;;;;;;4.38;2.35;;;;;;;;;;5099814;28;20207;-58
2022/04/21 13:11:20;;;;;;;1.60;1.50;;;;;;;;;;5099838;28;20204;-56
2022/04/21 13:13:47;;;;;;;1.90;1.70;;;;;;;;;;5099933;28;20215;-57
2022/04/21 13:16:13;;;;;;;1.67;1.67;;;;;;;;;;5095099;28;20204;-62
2022/04/21 13:18:40;;;;;;;1.63;1.52;;;;;;;;;;5087528;28;20211;-61
2022/04/21 13:23:50;;;;;;;2.63;1.77;;;;;;;;;;5099450;28;20211;-61
2022/04/21 13:26:17;;;;;;;1.42;1.40;;;;;;;;;;5078793;28;20213;-62
2022/04/21 13:28:43;;;;;;;3.40;1.55;;;;;;;;;;5079105;28;20213;-61
2022/04/21 13:33:54;;;;;;;1.60;1.60;;;;;;;;;;5078886;28;20250;-60
2022/04/21 13:36:21;;;;;;;1.65;1.55;;;;;;;;;;5078803;28;20208;-61
2022/04/21 13:38:47;;;;;;;1.58;1.48;;;;;;;;;;5079008;28;20258;-60
2022/04/21 13:41:13;;;;;;;1.67;1.67;;;;;;;;;;5078849;28;20262;-59
2022/04/21 13:43:39;;;;;;;1.70;1.60;;;;;;;;;;5078995;28;20208;-61
2022/04/21 13:46:06;;;;;;;1.38;1.38;;;;;;;;;;5092674;28;20701;-61
2022/04/21 13:48:32;;;;;;;1.83;1.73;;;;;;;;;;5098227;28;20468;-69
2022/04/21 13:51:02;;;;;;;2.33;1.58;;;;;;;;;;5098447;28;20552;-69
2022/04/21 13:53:28;;;;;;;1.33;1.23;;;;;;;;;;5098584;28;20239;-69
2022/04/21 13:55:56;;;;;;;1.90;1.48;;;;;;;;;;5098791;28;20200;-69
2022/04/21 13:58:22;;;;;;;1.25;1.25;;;;;;;;;;5098653;28;20208;-69
2022/04/21 14:00:48;;;;;;;1.40;1.40;;;;;;;;;;5098336;28;20257;-69
2022/04/21 14:03:15;;;;;;;1.30;1.30;;;;;;;;;;5098502;28;20218;-69
2022/04/21 14:05:41;;;;;;;1.30;1.30;;;;;;;;;;5098514;28;20239;-69
2022/04/21 14:08:09;;;;;;;1.77;1.42;;;;;;;;;;5098395;28;20208;-69
2022/04/21 14:10:36;;;;;;;1.30;1.30;;;;;;;;;;5098576;28;20199;-69
2022/04/21 14:13:02;;;;;;;1.20;1.20;;;;;;;;;;5097956;28;20214;-69
2022/04/21 14:15:29;;;;;;;2.92;1.42;;;;;;;;;;5098498;28;20507;-69
2022/04/21 14:17:55;;;;;;;4.47;1.60;;;;;;;;;;5098311;28;20215;-69
2022/04/21 14:20:21;;;;;;;1.67;1.67;;;;;;;;;;5098252;28;20207;-69
2022/04/21 14:22:47;;;;;;;1.98;1.70;;;;;;;;;;5097891;28;20515;-69
2022/04/21 14:25:15;;;;;;;1.98;1.95;;;;;;;;;;5098335;28;20570;-69
2022/04/21 14:27:41;;;;;;;2.67;1.95;;;;;;;;;;5098141;28;20207;-69
2022/04/21 14:30:08;;;;;;;2.58;1.67;;;;;;;;;;5098348;28;20211;-69
2022/04/21 14:32:35;;;;;;;1.67;1.67;;;;;;;;;;5098114;28;20433;-69
2022/04/21 14:35:01;;;;;;;1.90;1.80;;;;;;;;;;5098415;28;20196;-69
2022/04/21 14:45:43;;;;;;;1.63;1.55;;;;;;;;;;5097878;28;20448;-69
2022/04/21 14:48:10;;;;;;;1.55;1.45;;;;;;;;;;5094476;28;20213;-69
2022/04/21 14:50:38;;;;;;;1.23;1.23;;;;;;;;;;5086669;28;20450;-69
2022/04/21 14:53:05;;;;;;;3.22;1.55;;;;;;;;;;5087978;28;20204;-69
2022/04/21 14:55:31;;;;;;;1.50;1.50;;;;;;;;;;5086704;28;20274;-69
2022/04/21 14:57:59;;;;;;;1.50;1.40;;;;;;;;;;5086675;28;20212;-69
2022/04/21 15:00:25;;;;;;;1.42;1.33;;;;;;;;;;5088163;28;20196;-69
2022/04/21 15:02:53;;;;;;;2.72;1.30;;;;;;;;;;5079727;28;20212;-69
2022/04/21 15:05:19;;;;;;;1.40;1.30;;;;;;;;;;5076984;28;20239;-69
2022/04/21 15:07:46;;;;;;;1.42;1.33;;;;;;;;;;5077038;28;20208;-70
2022/04/21 15:10:13;;;;;;;1.85;1.60;;;;;;;;;;5076965;28;20212;-69
2022/04/21 15:12:39;;;;;;;3.83;1.90;;;;;;;;;;5079031;28;20204;-69
2022/04/21 15:15:07;;;;;;;1.80;1.70;;;;;;;;;;5097623;28;20204;-69
2022/04/21 15:17:34;;;;;;;1.60;1.50;;;;;;;;;;5097229;28;20409;-69
2022/04/21 15:20:02;;;;;;;1.98;1.50;;;;;;;;;;5088246;28;20213;-69
2022/04/21 15:22:29;;;;;;;1.92;1.65;;;;;;;;;;5094573;28;20216;-69
2022/04/21 15:24:56;;;;;;;1.73;1.73;;;;;;;;;;5096820;28;20227;-69
2022/04/21 15:27:22;;;;;;;1.60;1.50;;;;;;;;;;5097110;28;20211;-69
2022/04/21 15:29:48;;;;;;;1.13;0.95;;;;;;;;;;5097590;28;20211;-70
2022/04/21 15:32:17;;;;;;;1.20;1.20;;;;;;;;;;5096175;28;20207;-69
2022/04/21 15:34:43;;;;;;;1.30;1.20;;;;;;;;;;5096528;28;20200;-69
2022/04/21 15:37:10;;;;;;;4.40;1.40;;;;;;;;;;5096580;28;20214;-69
2022/04/21 15:39:36;;;;;;;1.00;1.00;;;;;;;;;;5096669;28;20212;-69